createdAt,value
2023-02-16T00:01:00.544Z,68.23
2023-02-16T00:02:02.888Z,68.04
2023-02-16T00:03:05.168Z,68.08
2023-02-16T00:04:20.847Z,68.29
2023-02-16T00:05:29.678Z,68.21
2023-02-16T00:06:31.922Z,68.21
2023-02-16T00:07:34.298Z,68.51
2023-02-16T00:08:36.502Z,68.42
2023-02-16T00:09:38.657Z,68.49
2023-02-16T00:10:41.561Z,68.43
2023-02-16T00:12:02.886Z,68.50
2023-02-16T00:13:45.366Z,68.12
2023-02-16T00:14:47.600Z,67.80
2023-02-16T00:15:50.283Z,67.99
2023-02-16T00:16:57.834Z,67.81
2023-02-16T00:18:02.775Z,67.95
2023-02-16T00:19:21.284Z,67.83
2023-02-16T00:20:23.801Z,68.10
2023-02-16T00:21:27.196Z,68.11
2023-02-16T00:22:29.664Z,68.09
2023-02-16T00:23:32.055Z,67.87
2023-02-16T00:24:35.253Z,67.82
2023-02-16T00:25:38.369Z,68.07
2023-02-16T00:26:41.318Z,68.08
2023-02-16T00:27:44.023Z,68.00
2023-02-16T00:28:50.049Z,68.11
2023-02-16T00:29:52.371Z,68.25
2023-02-16T00:30:54.726Z,68.28
2023-02-16T00:31:58.939Z,68.00
2023-02-16T00:33:01.538Z,67.70
2023-02-16T00:34:28.876Z,67.60
2023-02-16T00:35:31.073Z,67.28
2023-02-16T00:36:34.278Z,67.63
2023-02-16T00:37:36.491Z,67.77
2023-02-16T00:38:39.165Z,67.54
2023-02-16T00:39:43.187Z,67.66
2023-02-16T00:40:45.955Z,67.81
2023-02-16T00:41:51.829Z,67.52
2023-02-16T00:42:56.094Z,67.59
2023-02-16T00:43:59.608Z,67.42
2023-02-16T00:45:02.502Z,67.37
2023-02-16T00:46:05.239Z,67.27
2023-02-16T00:47:30.085Z,67.15
2023-02-16T00:48:32.481Z,67.36
2023-02-16T00:49:34.913Z,66.94
2023-02-16T00:50:37.332Z,66.71
2023-02-16T00:51:39.737Z,66.53
2023-02-16T00:52:42.964Z,66.36
2023-02-16T00:53:45.400Z,65.95
2023-02-16T00:54:47.609Z,65.91
2023-02-16T00:55:50.391Z,65.80
2023-02-16T00:56:52.721Z,65.55
2023-02-16T00:58:05.709Z,65.86
2023-02-16T00:59:16.710Z,65.72
2023-02-16T01:00:24.318Z,65.26
2023-02-16T01:01:32.648Z,65.23
2023-02-16T01:02:35.061Z,65.04
2023-02-16T01:03:37.873Z,65.19
2023-02-16T01:04:40.334Z,65.05
2023-02-16T01:05:43.146Z,65.49
2023-02-16T01:07:03.660Z,65.27
2023-02-16T01:08:35.669Z,65.40
2023-02-16T01:09:57.764Z,65.29
2023-02-16T01:11:10.416Z,65.37
2023-02-16T01:12:20.209Z,65.56
2023-02-16T01:13:23.852Z,65.21
2023-02-16T01:14:26.302Z,65.34
2023-02-16T01:15:28.797Z,65.07
2023-02-16T01:16:41.682Z,64.79
2023-02-16T01:17:43.887Z,64.87
2023-02-16T01:18:46.867Z,65.11
2023-02-16T01:19:49.374Z,65.18
2023-02-16T01:20:51.884Z,65.16
2023-02-16T01:21:54.285Z,65.41
2023-02-16T01:22:56.611Z,65.19
2023-02-16T01:23:58.815Z,65.42
2023-02-16T01:25:01.267Z,65.26
2023-02-16T01:26:04.443Z,65.58
2023-02-16T01:27:12.696Z,65.50
2023-02-16T01:28:22.969Z,65.61
2023-02-16T01:29:25.196Z,65.52
2023-02-16T01:30:28.383Z,65.75
2023-02-16T01:31:30.815Z,65.72
2023-02-16T01:32:33.771Z,65.71
2023-02-16T01:33:35.978Z,65.36
2023-02-16T01:34:38.728Z,64.88
2023-02-16T01:35:41.738Z,65.11
2023-02-16T01:36:47.108Z,65.66
2023-02-16T01:37:51.328Z,65.23
2023-02-16T01:38:53.850Z,65.43
2023-02-16T01:39:56.063Z,65.68
2023-02-16T01:41:32.182Z,65.81
2023-02-16T01:42:58.828Z,65.26
2023-02-16T01:44:13.252Z,65.53
2023-02-16T01:45:20.154Z,65.45
2023-02-16T01:47:11.929Z,65.58
2023-02-16T01:48:22.994Z,65.59
2023-02-16T01:49:25.171Z,65.95
2023-02-16T01:50:43.305Z,65.64
2023-02-16T01:51:52.224Z,65.21
2023-02-16T01:53:06.246Z,65.47
2023-02-16T01:54:31.566Z,65.25
2023-02-16T01:55:38.410Z,65.28
2023-02-16T01:56:46.189Z,65.52
2023-02-16T01:57:56.594Z,65.47
2023-02-16T01:59:21.086Z,65.36
2023-02-16T02:00:45.289Z,65.56
2023-02-16T02:01:55.401Z,65.62
2023-02-16T02:03:25.663Z,65.60
2023-02-16T02:04:49.791Z,65.28
2023-02-16T02:05:52.276Z,65.29
2023-02-16T02:06:54.479Z,65.33
2023-02-16T02:08:24.029Z,65.74
2023-02-16T02:09:39.204Z,65.85
2023-02-16T02:10:44.900Z,65.48
2023-02-16T02:11:52.693Z,65.41
2023-02-16T02:13:15.937Z,65.51
2023-02-16T02:14:24.241Z,65.39
2023-02-16T02:15:31.321Z,65.41
2023-02-16T02:16:33.593Z,65.64
2023-02-16T02:17:37.398Z,65.78
2023-02-16T02:18:40.211Z,65.95
2023-02-16T02:19:59.728Z,65.88
2023-02-16T02:21:43.756Z,66.01
2023-02-16T02:23:34.211Z,66.20
2023-02-16T02:25:15.336Z,66.62
2023-02-16T02:26:50.308Z,66.57
2023-02-16T02:28:07.846Z,66.66
2023-02-16T02:29:28.642Z,66.79
2023-02-16T02:31:12.419Z,66.99
2023-02-16T02:32:47.257Z,67.06
2023-02-16T02:34:11.781Z,67.07
2023-02-16T02:35:26.401Z,66.99
2023-02-16T02:36:42.693Z,66.85
2023-02-16T02:37:47.650Z,66.78
2023-02-16T02:39:04.456Z,66.77
2023-02-16T02:40:12.939Z,67.12
2023-02-16T02:42:05.204Z,67.42
2023-02-16T02:43:33.410Z,67.38
2023-02-16T02:44:42.183Z,67.48
2023-02-16T02:45:50.849Z,67.14
2023-02-16T02:46:53.766Z,66.79
2023-02-16T02:47:55.992Z,67.03
2023-02-16T02:48:59.699Z,67.48
2023-02-16T02:50:02.348Z,67.28
2023-02-16T02:51:27.113Z,67.29
2023-02-16T02:52:30.564Z,67.42
2023-02-16T02:53:36.154Z,67.56
2023-02-16T02:54:59.922Z,67.60
2023-02-16T02:56:22.501Z,68.03
2023-02-16T02:57:49.901Z,68.31
2023-02-16T02:59:16.077Z,68.53
2023-02-16T03:00:43.681Z,68.38
2023-02-16T03:01:53.662Z,68.38
2023-02-16T03:03:01.176Z,68.13
2023-02-16T03:04:06.117Z,67.70
2023-02-16T03:05:11.950Z,67.46
2023-02-16T03:06:28.439Z,67.81
2023-02-16T03:07:48.435Z,67.86
2023-02-16T03:09:07.007Z,67.52
2023-02-16T03:10:29.002Z,67.89
2023-02-16T03:11:57.680Z,67.90
2023-02-16T03:13:02.394Z,68.05
2023-02-16T03:14:22.956Z,68.35
2023-02-16T03:15:26.590Z,68.35
2023-02-16T03:16:44.675Z,68.46
2023-02-16T03:18:05.667Z,68.74
2023-02-16T03:19:28.220Z,68.65
2023-02-16T03:20:49.241Z,68.74
2023-02-16T03:22:10.745Z,68.41
2023-02-16T03:23:31.699Z,68.65
2023-02-16T03:24:52.845Z,68.19
2023-02-16T03:26:14.171Z,67.99
2023-02-16T03:27:42.687Z,67.88
2023-02-16T03:29:04.236Z,68.16
2023-02-16T03:30:10.792Z,68.33
2023-02-16T03:31:20.799Z,68.26
2023-02-16T03:32:23.203Z,68.31
2023-02-16T03:33:26.830Z,68.70
2023-02-16T03:34:30.972Z,68.54
2023-02-16T03:35:33.556Z,68.75
2023-02-16T03:36:38.462Z,68.69
2023-02-16T03:37:41.963Z,68.86
2023-02-16T03:38:44.674Z,68.92
2023-02-16T03:40:05.621Z,69.26
2023-02-16T03:41:08.069Z,68.83
2023-02-16T03:42:10.235Z,68.90
2023-02-16T03:43:12.626Z,68.89
2023-02-16T03:44:15.654Z,68.87
2023-02-16T03:45:19.588Z,69.20
2023-02-16T03:46:21.876Z,69.18
2023-02-16T03:47:24.298Z,69.36
2023-02-16T03:48:26.968Z,69.39
2023-02-16T03:49:29.134Z,69.21
2023-02-16T03:50:31.769Z,69.03
2023-02-16T03:51:34.024Z,69.05
2023-02-16T03:52:36.640Z,69.25
2023-02-16T03:53:38.826Z,69.05
2023-02-16T03:54:40.992Z,69.20
2023-02-16T03:55:45.514Z,69.33
2023-02-16T03:56:47.912Z,69.46
2023-02-16T03:57:50.092Z,69.54
2023-02-16T03:58:52.330Z,69.39
2023-02-16T03:59:54.769Z,69.69
2023-02-16T04:00:59.134Z,69.54
2023-02-16T04:02:01.407Z,69.10
2023-02-16T04:03:05.163Z,69.14
2023-02-16T04:04:07.558Z,68.97
2023-02-16T04:05:09.741Z,68.66
2023-02-16T04:06:12.184Z,68.87
2023-02-16T04:07:14.332Z,69.04
2023-02-16T04:08:16.690Z,68.94
2023-02-16T04:09:19.119Z,69.01
2023-02-16T04:10:21.702Z,69.00
2023-02-16T04:11:43.027Z,68.96
2023-02-16T04:12:45.635Z,69.04
2023-02-16T04:13:47.797Z,69.15
2023-02-16T04:14:50.375Z,69.09
2023-02-16T04:15:52.913Z,69.21
2023-02-16T04:16:56.829Z,69.18
2023-02-16T04:17:59.484Z,69.29
2023-02-16T04:19:01.685Z,69.32
2023-02-16T04:20:05.287Z,69.23
2023-02-16T04:21:07.744Z,68.89
2023-02-16T04:22:09.960Z,68.93
2023-02-16T04:23:12.368Z,69.08
2023-02-16T04:24:14.581Z,69.20
2023-02-16T04:25:18.768Z,69.35
2023-02-16T04:26:21.421Z,69.34
2023-02-16T04:27:23.616Z,69.07
2023-02-16T04:28:26.283Z,69.08
2023-02-16T04:29:29.343Z,69.36
2023-02-16T04:30:32.201Z,69.26
2023-02-16T04:31:35.122Z,69.23
2023-02-16T04:32:37.949Z,69.09
2023-02-16T04:33:40.579Z,69.05
2023-02-16T04:34:42.929Z,69.11
2023-02-16T04:35:45.602Z,69.06
2023-02-16T04:36:47.786Z,69.02
2023-02-16T04:37:49.979Z,68.90
2023-02-16T04:38:52.229Z,68.79
2023-02-16T04:39:54.513Z,68.86
2023-02-16T04:40:56.927Z,68.89
2023-02-16T04:41:59.136Z,68.83
2023-02-16T04:43:01.320Z,69.00
2023-02-16T04:44:03.511Z,69.24
2023-02-16T04:45:06.964Z,69.47
2023-02-16T04:46:09.372Z,69.60
2023-02-16T04:47:11.796Z,69.52
2023-02-16T04:48:14.265Z,69.48
2023-02-16T04:49:16.550Z,69.47
2023-02-16T04:50:19.031Z,69.52
2023-02-16T04:51:21.229Z,69.78
2023-02-16T04:52:23.621Z,69.91
2023-02-16T04:53:26.133Z,69.64
2023-02-16T04:54:28.334Z,69.44
2023-02-16T04:55:31.204Z,69.63
2023-02-16T04:56:33.531Z,69.42
2023-02-16T04:57:36.236Z,69.43
2023-02-16T04:58:39.173Z,69.43
2023-02-16T04:59:41.380Z,69.49
2023-02-16T05:00:43.885Z,69.57
2023-02-16T05:01:46.596Z,69.47
2023-02-16T05:02:48.852Z,69.87
2023-02-16T05:03:51.395Z,70.00
2023-02-16T05:04:53.794Z,70.14
2023-02-16T05:05:56.199Z,70.25
2023-02-16T05:06:58.667Z,70.23
2023-02-16T05:08:02.396Z,70.54
2023-02-16T05:09:06.347Z,70.30
2023-02-16T05:10:09.161Z,70.10
2023-02-16T05:11:30.457Z,70.44
2023-02-16T05:12:51.444Z,70.29
2023-02-16T05:14:16.374Z,70.29
2023-02-16T05:15:18.758Z,70.22
2023-02-16T05:16:22.897Z,70.23
2023-02-16T05:17:26.916Z,70.21
2023-02-16T05:18:29.097Z,70.42
2023-02-16T05:19:31.600Z,70.37
2023-02-16T05:20:52.485Z,70.35
2023-02-16T05:21:54.539Z,70.27
2023-02-16T05:22:56.828Z,70.18
2023-02-16T05:24:00.859Z,70.08
2023-02-16T05:25:03.591Z,70.18
2023-02-16T05:26:05.765Z,70.27
2023-02-16T05:27:11.849Z,70.60
2023-02-16T05:28:14.520Z,70.69
2023-02-16T05:29:16.691Z,70.62
2023-02-16T05:30:19.142Z,70.47
2023-02-16T05:31:22.665Z,70.58
2023-02-16T05:32:25.633Z,70.43
2023-02-16T05:33:28.082Z,70.49
2023-02-16T05:34:30.298Z,70.47
2023-02-16T05:35:34.576Z,70.41
2023-02-16T05:36:36.766Z,70.25
2023-02-16T05:37:41.682Z,70.44
2023-02-16T05:38:44.961Z,70.29
2023-02-16T05:39:47.451Z,70.30
2023-02-16T05:40:49.915Z,70.13
2023-02-16T05:41:52.107Z,70.26
2023-02-16T05:42:55.725Z,70.56
2023-02-16T05:44:03.509Z,70.50
2023-02-16T05:45:06.342Z,70.30
2023-02-16T05:46:09.552Z,70.30
2023-02-16T05:47:12.578Z,70.19
2023-02-16T05:48:15.025Z,69.87
2023-02-16T05:49:18.031Z,70.04
2023-02-16T05:50:20.707Z,70.15
2023-02-16T05:51:25.147Z,70.31
2023-02-16T05:52:27.534Z,70.49
2023-02-16T05:53:29.696Z,70.63
2023-02-16T05:54:32.231Z,70.69
2023-02-16T05:55:34.624Z,70.65
2023-02-16T05:56:37.078Z,70.31
2023-02-16T05:57:39.720Z,70.01
2023-02-16T05:58:41.933Z,69.98
2023-02-16T05:59:44.109Z,70.18
2023-02-16T06:00:46.870Z,70.08
2023-02-16T06:01:51.840Z,69.81
2023-02-16T06:02:55.119Z,70.16
2023-02-16T06:03:57.384Z,69.94
2023-02-16T06:04:59.542Z,69.80
2023-02-16T06:06:04.058Z,69.89
2023-02-16T06:07:06.503Z,70.00
2023-02-16T06:08:09.067Z,70.18
2023-02-16T06:09:11.719Z,70.06
2023-02-16T06:10:16.266Z,70.11
2023-02-16T06:11:37.242Z,70.07
2023-02-16T06:12:39.446Z,70.03
2023-02-16T06:13:41.630Z,70.05
2023-02-16T06:14:44.327Z,70.00
2023-02-16T06:15:47.529Z,70.39
2023-02-16T06:16:54.225Z,70.24
2023-02-16T06:17:56.412Z,70.50
2023-02-16T06:19:00.149Z,70.36
2023-02-16T06:20:03.246Z,70.72
2023-02-16T06:21:05.896Z,70.43
2023-02-16T06:22:08.443Z,70.49
2023-02-16T06:23:13.091Z,70.64
2023-02-16T06:24:15.540Z,70.47
2023-02-16T06:25:20.426Z,70.27
2023-02-16T06:26:22.907Z,70.19
2023-02-16T06:27:25.087Z,70.45
2023-02-16T06:28:27.299Z,70.32
2023-02-16T06:29:30.089Z,70.07
2023-02-16T06:30:33.005Z,70.21
2023-02-16T06:31:36.721Z,70.28
2023-02-16T06:32:39.344Z,70.59
2023-02-16T06:33:43.556Z,70.45
2023-02-16T06:34:45.838Z,70.00
2023-02-16T06:35:48.752Z,70.10
2023-02-16T06:36:50.981Z,70.15
2023-02-16T06:37:53.394Z,69.97
2023-02-16T06:38:55.755Z,69.90
2023-02-16T06:39:57.937Z,69.86
2023-02-16T06:41:00.415Z,70.25
2023-02-16T06:42:02.853Z,70.07
2023-02-16T06:43:05.070Z,70.01
2023-02-16T06:44:13.522Z,69.62
2023-02-16T06:45:16.070Z,69.72
2023-02-16T06:46:18.604Z,69.32
2023-02-16T06:47:20.937Z,69.44
2023-02-16T06:48:23.316Z,69.49
2023-02-16T06:49:27.809Z,69.86
2023-02-16T06:50:30.493Z,69.75
2023-02-16T06:51:33.104Z,69.97
2023-02-16T06:52:35.971Z,70.00
2023-02-16T06:53:38.376Z,69.75
2023-02-16T06:54:41.152Z,69.73
2023-02-16T06:55:43.338Z,69.66
2023-02-16T06:56:45.574Z,69.90
2023-02-16T06:57:47.808Z,69.94
2023-02-16T06:58:50.476Z,69.60
2023-02-16T06:59:52.787Z,70.00
2023-02-16T07:00:55.559Z,70.03
2023-02-16T07:01:57.979Z,69.83
2023-02-16T07:03:00.475Z,70.49
2023-02-16T07:04:02.984Z,69.88
2023-02-16T07:05:05.840Z,70.08
2023-02-16T07:06:08.338Z,71.42
2023-02-16T07:07:10.530Z,70.44
2023-02-16T07:08:12.962Z,70.36
2023-02-16T07:09:15.167Z,70.31
2023-02-16T07:10:17.803Z,68.43
2023-02-16T07:11:20.759Z,67.76
2023-02-16T07:12:22.961Z,68.16
2023-02-16T07:13:25.574Z,68.14
2023-02-16T07:14:28.151Z,68.01
2023-02-16T07:15:30.342Z,68.20
2023-02-16T07:16:32.569Z,69.57
2023-02-16T07:17:35.057Z,69.51
2023-02-16T07:18:37.256Z,69.37
2023-02-16T07:19:39.650Z,70.10
2023-02-16T07:20:41.971Z,70.34
2023-02-16T07:21:44.938Z,70.93
2023-02-16T07:22:47.150Z,70.50
2023-02-16T07:23:49.593Z,69.20
2023-02-16T07:24:52.056Z,69.45
2023-02-16T07:25:54.233Z,69.46
2023-02-16T07:26:56.657Z,68.98
2023-02-16T07:27:59.163Z,68.71
2023-02-16T07:29:01.362Z,69.04
2023-02-16T07:30:04.416Z,69.00
2023-02-16T07:31:10.903Z,69.16
2023-02-16T07:32:13.283Z,69.08
2023-02-16T07:33:16.052Z,69.26
2023-02-16T07:34:20.840Z,69.15
2023-02-16T07:35:23.571Z,69.13
2023-02-16T07:36:25.895Z,69.03
2023-02-16T07:37:28.181Z,69.03
2023-02-16T07:38:30.850Z,69.16
2023-02-16T07:39:34.105Z,69.27
2023-02-16T07:40:36.453Z,69.06
2023-02-16T07:41:38.837Z,68.83
2023-02-16T07:42:43.298Z,68.52
2023-02-16T07:43:45.473Z,68.42
2023-02-16T07:44:47.897Z,68.36
2023-02-16T07:45:50.516Z,68.58
2023-02-16T07:46:52.713Z,68.26
2023-02-16T07:47:54.893Z,68.39
2023-02-16T07:48:57.270Z,68.37
2023-02-16T07:49:59.751Z,68.12
2023-02-16T07:51:02.704Z,68.08
2023-02-16T07:52:05.278Z,67.33
2023-02-16T07:53:07.748Z,67.18
2023-02-16T07:54:10.063Z,66.61
2023-02-16T07:55:12.283Z,65.95
2023-02-16T07:56:32.216Z,64.99
2023-02-16T07:57:34.439Z,64.50
2023-02-16T07:58:36.772Z,63.94
2023-02-16T07:59:39.005Z,63.48
2023-02-16T08:00:41.419Z,63.15
2023-02-16T08:01:43.592Z,62.38
2023-02-16T08:02:45.897Z,62.11
2023-02-16T08:03:48.579Z,61.48
2023-02-16T08:04:52.850Z,61.13
2023-02-16T08:05:55.581Z,60.54
2023-02-16T08:06:58.079Z,60.42
2023-02-16T08:08:00.297Z,60.29
2023-02-16T08:09:03.582Z,60.05
2023-02-16T08:10:06.858Z,59.92
2023-02-16T08:11:13.238Z,59.79
2023-02-16T08:12:16.312Z,59.62
2023-02-16T08:13:18.542Z,59.58
2023-02-16T08:14:20.930Z,59.37
2023-02-16T08:15:23.945Z,58.94
2023-02-16T08:16:29.073Z,58.46
2023-02-16T08:17:31.306Z,58.34
2023-02-16T08:18:33.696Z,58.29
2023-02-16T08:19:37.203Z,57.67
2023-02-16T08:21:01.042Z,57.37
2023-02-16T08:22:02.812Z,57.31
2023-02-16T08:23:05.540Z,57.05
2023-02-16T08:24:08.770Z,56.95
2023-02-16T08:25:11.685Z,56.96
2023-02-16T08:26:17.328Z,57.17
2023-02-16T08:27:19.884Z,57.53
2023-02-16T08:28:22.069Z,57.46
2023-02-16T08:29:24.606Z,57.40
2023-02-16T08:30:27.260Z,57.30
2023-02-16T08:31:31.979Z,57.18
2023-02-16T08:32:34.371Z,56.96
2023-02-16T08:33:37.021Z,57.04
2023-02-16T08:34:41.533Z,56.80
2023-02-16T08:35:45.588Z,56.33
2023-02-16T08:36:53.574Z,55.87
2023-02-16T08:37:55.714Z,55.56
2023-02-16T08:38:58.946Z,55.39
2023-02-16T08:40:02.814Z,55.33
2023-02-16T08:41:05.017Z,55.39
2023-02-16T08:42:07.228Z,55.51
2023-02-16T08:43:09.403Z,55.25
2023-02-16T08:44:12.380Z,55.18
2023-02-16T08:45:15.451Z,54.93
2023-02-16T08:46:18.502Z,54.82
2023-02-16T08:47:21.468Z,54.48
2023-02-16T08:48:23.642Z,54.55
2023-02-16T08:49:26.289Z,54.23
2023-02-16T08:50:29.217Z,54.01
2023-02-16T08:51:34.707Z,53.97
2023-02-16T08:52:38.513Z,53.81
2023-02-16T08:53:40.737Z,54.04
2023-02-16T08:54:42.975Z,54.25
2023-02-16T08:55:55.882Z,54.15
2023-02-16T08:56:59.041Z,53.39
2023-02-16T08:58:01.583Z,53.27
2023-02-16T08:59:03.964Z,53.09
2023-02-16T09:00:25.692Z,52.67
2023-02-16T09:01:28.584Z,52.79
2023-02-16T09:02:30.846Z,52.44
2023-02-16T09:03:33.112Z,52.37
2023-02-16T09:04:36.818Z,52.45
2023-02-16T09:05:39.545Z,52.43
2023-02-16T09:06:44.387Z,52.46
2023-02-16T09:07:46.618Z,52.60
2023-02-16T09:08:54.084Z,52.71
2023-02-16T09:09:56.285Z,52.49
2023-02-16T09:11:03.753Z,52.12
2023-02-16T09:12:06.798Z,51.65
2023-02-16T09:13:14.050Z,52.33
2023-02-16T09:14:19.977Z,52.79
2023-02-16T09:15:22.615Z,52.58
2023-02-16T09:16:27.867Z,51.88
2023-02-16T09:17:30.926Z,51.62
2023-02-16T09:18:33.128Z,51.08
2023-02-16T09:19:35.533Z,51.28
2023-02-16T09:20:39.569Z,51.81
2023-02-16T09:21:43.039Z,51.41
2023-02-16T09:22:47.177Z,51.42
2023-02-16T09:23:51.004Z,51.68
2023-02-16T09:24:53.748Z,50.85
2023-02-16T09:25:56.318Z,50.80
2023-02-16T09:26:58.569Z,50.22
2023-02-16T09:28:01.075Z,50.41
2023-02-16T09:29:04.095Z,50.85
2023-02-16T09:30:07.391Z,50.46
2023-02-16T09:31:25.621Z,50.53
2023-02-16T09:32:29.582Z,50.70
2023-02-16T09:33:31.977Z,51.12
2023-02-16T09:34:34.261Z,51.28
2023-02-16T09:35:39.480Z,51.12
2023-02-16T09:36:42.532Z,51.24
2023-02-16T09:37:44.778Z,50.95
2023-02-16T09:38:49.023Z,51.16
2023-02-16T09:39:51.424Z,51.04
2023-02-16T09:40:53.990Z,51.39
2023-02-16T09:42:05.358Z,51.16
2023-02-16T09:43:24.822Z,51.02
2023-02-16T09:44:39.384Z,51.02
2023-02-16T09:45:46.303Z,51.02
2023-02-16T09:46:49.605Z,50.93
2023-02-16T09:47:54.365Z,51.14
2023-02-16T09:48:57.408Z,51.07
2023-02-16T09:50:05.041Z,51.01
2023-02-16T09:51:09.094Z,51.04
2023-02-16T09:52:40.700Z,50.91
2023-02-16T09:53:45.059Z,51.12
2023-02-16T09:54:57.641Z,51.08
2023-02-16T09:56:08.720Z,51.02
2023-02-16T09:57:33.439Z,51.31
2023-02-16T09:58:48.873Z,51.38
2023-02-16T09:59:58.812Z,51.58
2023-02-16T10:01:40.874Z,51.40
2023-02-16T10:02:55.754Z,51.25
2023-02-16T10:04:03.423Z,51.14
2023-02-16T10:05:30.299Z,51.37
2023-02-16T10:06:52.294Z,51.53
2023-02-16T10:08:00.440Z,51.61
2023-02-16T10:09:12.754Z,51.32
2023-02-16T10:10:21.490Z,51.08
2023-02-16T10:11:38.716Z,51.14
2023-02-16T10:12:46.599Z,51.38
2023-02-16T10:13:57.277Z,51.92
2023-02-16T10:15:08.360Z,51.71
2023-02-16T10:16:17.220Z,51.95
2023-02-16T10:17:37.814Z,51.88
2023-02-16T10:18:45.034Z,51.75
2023-02-16T10:19:56.283Z,51.66
2023-02-16T10:21:02.952Z,51.86
2023-02-16T10:22:13.057Z,51.69
2023-02-16T10:23:33.769Z,51.58
2023-02-16T10:24:47.865Z,51.60
2023-02-16T10:26:13.880Z,51.29
2023-02-16T10:27:16.901Z,51.55
2023-02-16T10:28:46.784Z,51.13
2023-02-16T10:29:49.111Z,51.11
2023-02-16T10:30:56.518Z,51.40
2023-02-16T10:32:07.826Z,51.21
2023-02-16T10:33:17.964Z,51.60
2023-02-16T10:34:22.612Z,51.69
2023-02-16T10:35:45.475Z,51.73
2023-02-16T10:36:56.016Z,51.83
2023-02-16T10:38:12.470Z,51.74
2023-02-16T10:39:33.219Z,51.72
2023-02-16T10:40:48.375Z,52.02
2023-02-16T10:42:09.878Z,51.87
2023-02-16T10:43:25.411Z,52.08
2023-02-16T10:44:42.263Z,52.05
2023-02-16T10:45:52.898Z,52.12
2023-02-16T10:47:02.610Z,52.60
2023-02-16T10:48:05.637Z,52.18
2023-02-16T10:49:15.787Z,52.49
2023-02-16T10:50:23.965Z,52.47
2023-02-16T10:51:32.708Z,52.88
2023-02-16T10:52:40.697Z,53.01
2023-02-16T10:53:50.464Z,52.88
2023-02-16T10:54:52.658Z,53.14
2023-02-16T10:55:57.416Z,53.30
2023-02-16T10:57:06.291Z,53.54
2023-02-16T10:58:24.721Z,53.28
2023-02-16T10:59:42.686Z,53.54
2023-02-16T11:01:13.907Z,53.34
2023-02-16T11:02:37.634Z,53.36
2023-02-16T11:03:46.604Z,53.60
2023-02-16T11:04:52.513Z,53.61
2023-02-16T11:05:55.469Z,53.72
2023-02-16T11:07:06.560Z,53.77
2023-02-16T11:08:11.318Z,53.66
2023-02-16T11:09:15.692Z,53.67
2023-02-16T11:10:31.070Z,53.80
2023-02-16T11:11:42.599Z,53.70
2023-02-16T11:12:45.326Z,53.41
2023-02-16T11:13:50.016Z,53.18
2023-02-16T11:14:56.846Z,53.25
2023-02-16T11:16:11.986Z,53.36
2023-02-16T11:17:17.426Z,53.30
2023-02-16T11:18:34.469Z,53.20
2023-02-16T11:19:38.837Z,53.23
2023-02-16T11:20:47.573Z,52.91
2023-02-16T11:21:55.576Z,53.20
2023-02-16T11:23:29.085Z,52.97
2023-02-16T11:24:33.540Z,52.64
2023-02-16T11:25:35.751Z,52.67
2023-02-16T11:26:38.181Z,52.78
2023-02-16T11:27:51.539Z,52.68
2023-02-16T11:28:53.794Z,52.54
2023-02-16T11:30:24.097Z,52.04
2023-02-16T11:31:37.147Z,51.98
2023-02-16T11:32:39.665Z,52.08
2023-02-16T11:33:43.630Z,52.40
2023-02-16T11:34:47.553Z,52.34
2023-02-16T11:35:50.294Z,52.49
2023-02-16T11:37:03.361Z,52.28
2023-02-16T11:38:06.434Z,52.23
2023-02-16T11:39:20.463Z,52.34
2023-02-16T11:40:31.881Z,52.08
2023-02-16T11:41:35.218Z,52.37
2023-02-16T11:42:47.293Z,52.42
2023-02-16T11:43:49.644Z,52.16
2023-02-16T11:44:55.735Z,52.33
2023-02-16T11:46:16.904Z,52.45
2023-02-16T11:47:22.283Z,52.05
2023-02-16T11:48:31.290Z,52.07
2023-02-16T11:49:33.466Z,52.00
2023-02-16T11:50:54.667Z,51.72
2023-02-16T11:51:57.471Z,51.66
2023-02-16T11:53:12.185Z,51.76
2023-02-16T11:54:18.625Z,52.14
2023-02-16T11:55:27.278Z,51.53
2023-02-16T11:56:33.180Z,51.34
2023-02-16T11:57:37.014Z,51.11
2023-02-16T11:58:39.826Z,51.04
2023-02-16T11:59:42.422Z,51.67
2023-02-16T12:01:09.433Z,51.82
2023-02-16T12:02:45.123Z,51.81
2023-02-16T12:04:18.401Z,51.26
2023-02-16T12:06:01.345Z,51.31
2023-02-16T12:07:23.104Z,51.18
2023-02-16T12:08:35.668Z,50.74
2023-02-16T12:09:40.768Z,50.83
2023-02-16T12:11:17.879Z,50.26
2023-02-16T12:12:25.663Z,49.76
2023-02-16T12:13:40.531Z,49.96
2023-02-16T12:14:53.622Z,50.11
2023-02-16T12:16:37.827Z,50.19
2023-02-16T12:18:07.639Z,49.02
2023-02-16T12:19:31.873Z,48.63
2023-02-16T12:20:54.823Z,49.01
2023-02-16T12:22:16.828Z,49.16
2023-02-16T12:23:39.106Z,49.10
2023-02-16T12:24:44.190Z,49.79
2023-02-16T12:26:04.187Z,49.36
2023-02-16T12:27:18.205Z,49.10
2023-02-16T12:28:27.306Z,49.28
2023-02-16T12:29:46.157Z,49.45
2023-02-16T12:31:00.797Z,49.62
2023-02-16T12:32:07.537Z,49.24
2023-02-16T12:33:49.671Z,48.83
2023-02-16T12:35:04.134Z,49.04
2023-02-16T12:37:05.968Z,49.32
2023-02-16T12:38:26.964Z,48.85
2023-02-16T12:40:14.485Z,48.90
2023-02-16T12:41:53.886Z,48.64
2023-02-16T12:43:19.510Z,48.23
2023-02-16T12:44:36.840Z,48.35
2023-02-16T12:45:44.324Z,48.52
2023-02-16T12:47:01.934Z,48.42
2023-02-16T12:48:13.272Z,48.87
2023-02-16T12:49:18.206Z,48.77
2023-02-16T12:50:25.949Z,49.09
2023-02-16T12:51:36.266Z,48.89
2023-02-16T12:52:43.178Z,49.08
2023-02-16T12:54:10.202Z,48.94
2023-02-16T12:55:25.556Z,49.07
2023-02-16T12:56:41.757Z,49.18
2023-02-16T12:57:51.467Z,49.16
2023-02-16T12:59:05.216Z,49.17
2023-02-16T13:00:25.608Z,49.44
2023-02-16T13:01:33.461Z,49.24
2023-02-16T13:02:50.800Z,49.25
2023-02-16T13:04:15.237Z,49.48
2023-02-16T13:05:30.691Z,49.32
2023-02-16T13:06:45.505Z,49.19
2023-02-16T13:07:52.871Z,49.44
2023-02-16T13:09:00.636Z,49.09
2023-02-16T13:10:20.738Z,49.29
2023-02-16T13:11:33.589Z,49.03
2023-02-16T13:12:54.033Z,49.20
2023-02-16T13:14:05.618Z,49.50
2023-02-16T13:15:14.994Z,49.23
2023-02-16T13:16:30.546Z,49.60
2023-02-16T13:17:39.597Z,49.62
2023-02-16T13:18:44.734Z,49.37
2023-02-16T13:19:47.987Z,49.41
2023-02-16T13:20:59.121Z,49.66
2023-02-16T13:22:17.049Z,49.78
2023-02-16T13:23:41.228Z,49.85
2023-02-16T13:24:54.048Z,49.41
2023-02-16T13:26:47.558Z,48.19
2023-02-16T13:28:27.814Z,48.20
2023-02-16T13:29:55.719Z,47.85
2023-02-16T13:31:01.144Z,47.77
2023-02-16T13:32:20.169Z,47.81
2023-02-16T13:33:56.726Z,48.23
2023-02-16T13:35:04.694Z,48.65
2023-02-16T13:36:24.758Z,48.42
2023-02-16T13:37:32.951Z,48.35
2023-02-16T13:39:12.760Z,48.74
2023-02-16T13:40:54.921Z,48.55
2023-02-16T13:42:09.928Z,48.67
2023-02-16T13:43:27.066Z,48.56
2023-02-16T13:44:50.946Z,48.49
2023-02-16T13:45:54.556Z,48.73
2023-02-16T13:46:57.582Z,48.69
2023-02-16T13:48:00.973Z,48.77
2023-02-16T13:49:03.772Z,48.57
2023-02-16T13:50:09.779Z,48.22
2023-02-16T13:51:18.456Z,48.48
2023-02-16T13:52:31.039Z,48.42
2023-02-16T13:53:40.095Z,48.17
2023-02-16T13:54:45.585Z,47.96
2023-02-16T13:55:49.626Z,47.94
2023-02-16T13:56:52.187Z,47.94
2023-02-16T13:58:26.897Z,47.94
2023-02-16T13:59:29.074Z,47.17
2023-02-16T14:00:53.315Z,47.51
2023-02-16T14:01:57.480Z,47.42
2023-02-16T14:03:12.126Z,46.86
2023-02-16T14:04:23.872Z,46.36
2023-02-16T14:05:30.601Z,46.48
2023-02-16T14:06:38.076Z,46.59
2023-02-16T14:07:40.594Z,46.65
2023-02-16T14:08:44.435Z,46.79
2023-02-16T14:09:49.183Z,46.23
2023-02-16T14:10:55.103Z,46.17
2023-02-16T14:11:59.377Z,46.34
2023-02-16T14:13:13.151Z,46.51
2023-02-16T14:14:31.346Z,46.17
2023-02-16T14:15:33.842Z,46.20
2023-02-16T14:16:36.463Z,45.99
2023-02-16T14:17:38.725Z,46.07
2023-02-16T14:18:53.991Z,46.28
2023-02-16T14:20:04.205Z,46.13
2023-02-16T14:21:21.045Z,46.61
2023-02-16T14:22:53.411Z,46.86
2023-02-16T14:23:57.805Z,46.99
2023-02-16T14:25:03.973Z,47.02
2023-02-16T14:26:08.222Z,46.52
2023-02-16T14:27:13.221Z,46.31
2023-02-16T14:28:21.482Z,45.57
2023-02-16T14:29:38.759Z,45.31
2023-02-16T14:30:50.232Z,45.47
2023-02-16T14:32:05.852Z,45.38
2023-02-16T14:33:16.759Z,46.19
2023-02-16T14:34:26.753Z,46.46
2023-02-16T14:35:35.539Z,46.12
2023-02-16T14:37:23.606Z,45.40
2023-02-16T14:38:43.572Z,45.03
2023-02-16T14:40:06.828Z,45.12
2023-02-16T14:41:33.930Z,45.11
2023-02-16T14:42:36.935Z,45.11
2023-02-16T14:43:44.382Z,45.02
2023-02-16T14:45:00.790Z,44.85